Midas — OIZZ — position and weather

sailwx.info

Track history (hours):
 
Tides and Currents Weather Stations Pressure Air Temp Water Temp Dewpoint Dewpoint Depression Visibility Wind Speed Wind Dir Waves Ship Positions

Midas

Last reported at 2018-Jun-24 03:02 UTC. Time now 2018-Jun-25 17:27 UTC.
Position N 18°06' W 063°28'.

Length 108 m; draft 5 m.

Type: Cargo ship. MMSI: 230186000.

Date/timePositionNaut miles runAvg speedWind from/ knotsBaromVisibWave heightAir tempDewpointWater temp
2018-Jun-24 03:02N 18°06' W 063°28'1 8.3
2018-Jun-24 02:51N 18°06' W 063°27'3 8.5
2018-Jun-24 02:30N 18°05' W 063°23'4 8.1
2018-Jun-24 02:00N 18°04' W 063°19'4 8.1
2018-Jun-24 01:30N 18°03' W 063°15'4 8.4
2018-Jun-24 00:59N 18°02' W 063°11'4 8.7
2018-Jun-24 00:30N 18°01' W 063°07'4 2.3
2018-Jun-23 22:53N 18°01' W 063°03'0 0.0
2018-Jun-23 22:20N 18°01' W 063°03'0 0.0
2018-Jun-23 21:53N 18°01' W 063°03'0 0.0
2018-Jun-23 21:23N 18°01' W 063°03'0 0.0
2018-Jun-23 20:56N 18°01' W 063°03'0 0.0
2018-Jun-23 20:26N 18°01' W 063°03'0 0.0
2018-Jun-23 18:53N 18°01' W 063°03'1 0.2
2018-Jun-23 16:31N 18°00' W 063°03'0 5.0
2018-Jun-23 16:29N 18°00' W 063°03'10 1.9
2018-Jun-23 11:14N 17°55' W 062°54'310.0
2018-Jun-23 10:55N 17°56' W 062°57'7 9.6
2018-Jun-23 10:11N 18°00' W 063°03'1 2.1
2018-Jun-23 09:53N 18°01' W 063°03'0 0.0
2018-Jun-23 09:26N 18°01' W 063°03'0 0.0
2018-Jun-23 08:56N 18°01' W 063°03'0 0.0
2018-Jun-23 08:23N 18°01' W 063°03'0 0.0
2018-Jun-23 07:53N 18°01' W 063°03'0 0.0
2018-Jun-23 06:11N 18°01' W 063°03'0 0.0
2018-Jun-23 04:29N 18°01' W 063°03'0 0.0
2018-Jun-23 03:59N 18°01' W 063°03'0 0.0
2018-Jun-23 03:11N 18°01' W 063°03'0 0.0
2018-Jun-23 02:42N 18°01' W 063°03'0 0.0
2018-Jun-23 02:29N 18°01' W 063°03'0 0.0
2018-Jun-23 01:11N 18°01' W 063°03'0 0.0
2018-Jun-23 00:56N 18°01' W 063°03'0 0.0
2018-Jun-23 00:26N 18°01' W 063°03'0 0.0
2018-Jun-22 23:56N 18°01' W 063°03'0 0.0
2018-Jun-22 23:29N 18°01' W 063°03'0 0.0
2018-Jun-22 22:56N 18°01' W 063°03'0 0.0
2018-Jun-22 21:44N 18°01' W 063°03'0 0.0
2018-Jun-22 21:29N 18°01' W 063°03'0 0.0
2018-Jun-22 13:19N 18°00' W 063°03'2 5.4
2018-Jun-22 12:52N 17°59' W 063°01'410.7
2018-Jun-22 12:30N 17°55' W 063°00'813.1
2018-Jun-22 11:56N 17°47' W 062°59'712.8
2018-Jun-22 11:24N 17°41' W 062°57'512.6
2018-Jun-22 10:58N 17°36' W 062°56'711.7
2018-Jun-22 10:25N 17°29' W 062°55'512.2
2018-Jun-22 10:00N 17°24' W 062°54'1312.5
2018-Jun-22 08:57N 17°13' W 062°47'613.0
2018-Jun-22 08:29N 17°08' W 062°43'712.8
2018-Jun-22 07:57N 17°02' W 062°39'612.6
2018-Jun-22 07:28N 16°57' W 062°36'3 0.1
2018-Jun-20 22:18N 16°54' W 062°33'3 8.9
2018-Jun-20 22:00N 16°57' W 062°35'5 8.9
2018-Jun-20 21:28N 17°00' W 062°38'4 9.0
2018-Jun-20 21:00N 17°04' W 062°40'5 9.0
2018-Jun-20 20:30N 17°08' W 062°43'15 9.0
2018-Jun-20 18:51N 17°20' W 062°52'4 8.6
2018-Jun-20 18:20N 17°24' W 062°54'5 9.1
2018-Jun-20 17:45N 17°29' W 062°54'3 8.9
2018-Jun-20 17:28N 17°32' W 062°54'6 9.2
2018-Jun-20 16:51N 17°37' W 062°54'5 9.1
2018-Jun-20 16:16N 17°43' W 062°53'3 8.8
2018-Jun-20 15:56N 17°46' W 062°53'5 9.0
2018-Jun-20 15:23N 17°51' W 062°53'4 0.8
2018-Jun-20 09:55N 17°55' W 062°54'4 9.7
2018-Jun-20 09:28N 17°56' W 062°58'611.9
2018-Jun-20 08:59N 17°60' W 063°03'1 1.4
2018-Jun-20 08:30N 18°01' W 063°03'0 0.0
2018-Jun-20 06:51N 18°01' W 063°03'0 0.0
2018-Jun-20 06:18N 18°01' W 063°03'0 0.0
2018-Jun-20 05:48N 18°01' W 063°03'0 0.0
2018-Jun-20 05:07N 18°01' W 063°03'0 0.0
2018-Jun-20 03:55N 18°01' W 063°03'0 0.0
2018-Jun-20 01:06N 18°01' W 063°03'0 0.0
2018-Jun-20 00:54N 18°01' W 063°03'0 0.0
2018-Jun-20 00:25N 18°01' W 063°03'0 0.0
2018-Jun-19 23:58N 18°01' W 063°03'2 4.3
2018-Jun-19 23:30N 18°00' W 063°05'713.3
2018-Jun-19 23:00N 18°02' W 063°12'713.2
2018-Jun-19 22:28N 18°03' W 063°19'713.3
2018-Jun-19 21:58N 18°04' W 063°26'613.2
2018-Jun-19 21:30N 18°05' W 063°32'713.4
2018-Jun-19 21:00N 18°06' W 063°39'5412.9
2018-Jun-19 16:50N 18°14' W 064°35'613.4
2018-Jun-19 16:23N 18°15' W 064°41'1113.5
2018-Jun-19 15:34N 18°17' W 064°53'7 1.0
2018-Jun-19 08:46N 18°17' W 065°00'9 0.3
2018-Jun-18 03:27N 18°27' W 064°60'510.4
2018-Jun-18 03:00N 18°26' W 064°55'510.7
2018-Jun-18 02:30N 18°24' W 064°49'13 9.6
2018-Jun-18 01:08N 18°24' W 064°36'0 0.4
2018-Jun-18 00:59N 18°24' W 064°36'0 0.0
2018-Jun-18 00:29N 18°24' W 064°36'0 0.0
2018-Jun-17 23:59N 18°24' W 064°36'0 0.0
2018-Jun-17 23:29N 18°24' W 064°36'68 3.6
2018-Jun-17 04:39N 18°06' W 063°27'211.1
2018-Jun-17 04:28N 18°05' W 063°25'510.3
2018-Jun-17 04:00N 18°04' W 063°20'510.3
2018-Jun-17 03:30N 18°03' W 063°14'610.7
2018-Jun-17 02:58N 18°01' W 063°09'6 9.9
2018-Jun-17 02:23N 18°01' W 063°03'0 0.0
2018-Jun-16 23:59N 18°01' W 063°03'0 0.0
2018-Jun-16 22:41N 18°01' W 063°03'0 0.0
2018-Jun-16 22:29N 18°01' W 063°03'0 0.0
2018-Jun-16 21:41N 18°01' W 063°03'0 0.0
2018-Jun-16 21:17N 18°01' W 063°03'0 0.1
2018-Jun-16 16:39N 18°00' W 063°03'1 8.2
2018-Jun-16 16:28N 17°59' W 063°02'7 1.5
2018-Jun-16 11:47N 17°56' W 062°56'413.5
2018-Jun-16 11:29N 17°57' W 062°59'5 4.3
2018-Jun-16 10:24N 18°01' W 063°03'0 0.0
2018-Jun-16 09:57N 18°01' W 063°03'0 0.0
2018-Jun-16 09:27N 18°01' W 063°03'0 0.0
2018-Jun-16 07:42N 18°01' W 063°03'0 0.0
2018-Jun-16 07:27N 18°01' W 063°03'0 0.0
2018-Jun-16 07:00N 18°01' W 063°03'0 0.0
2018-Jun-16 06:30N 18°01' W 063°03'1 1.2
2018-Jun-16 05:57N 17°60' W 063°03'512.1
2018-Jun-16 05:30N 17°55' W 063°00'814.3
2018-Jun-16 04:57N 17°47' W 062°59'914.1
2018-Jun-16 04:19N 17°39' W 062°57'1313.9
2018-Jun-16 03:24N 17°26' W 062°54'1813.9
2018-Jun-16 02:05N 17°10' W 062°45'214.4
2018-Jun-16 01:57N 17°08' W 062°44'713.9
2018-Jun-16 01:28N 17°03' W 062°40'713.7
2018-Jun-16 00:59N 16°57' W 062°36'  
Track history (hours):
 
Tides and Currents Weather Stations Pressure Air Temp Water Temp Dewpoint Dewpoint Depression Visibility Wind Speed Wind Dir Waves Ship Positions

Midas

Last reported at 2018-Jun-24 03:02 UTC. Time now 2018-Jun-25 17:27 UTC.
Position N 18°06' W 063°28'.

Length 108 m; draft 5 m.

Type: Cargo ship. MMSI: 230186000.

Date/timePositionNaut miles runAvg speedWind from/ knotsBaromVisibWave heightAir tempDewpointWater temp
2018-Jun-24 03:02N 18°06' W 063°28'1 8.3
2018-Jun-24 02:51N 18°06' W 063°27'3 8.5
2018-Jun-24 02:30N 18°05' W 063°23'4 8.1
2018-Jun-24 02:00N 18°04' W 063°19'4 8.1
2018-Jun-24 01:30N 18°03' W 063°15'4 8.4
2018-Jun-24 00:59N 18°02' W 063°11'4 8.7
2018-Jun-24 00:30N 18°01' W 063°07'4 2.3
2018-Jun-23 22:53N 18°01' W 063°03'0 0.0
2018-Jun-23 22:20N 18°01' W 063°03'0 0.0
2018-Jun-23 21:53N 18°01' W 063°03'0 0.0
2018-Jun-23 21:23N 18°01' W 063°03'0 0.0
2018-Jun-23 20:56N 18°01' W 063°03'0 0.0
2018-Jun-23 20:26N 18°01' W 063°03'0 0.0
2018-Jun-23 18:53N 18°01' W 063°03'1 0.2
2018-Jun-23 16:31N 18°00' W 063°03'0 5.0
2018-Jun-23 16:29N 18°00' W 063°03'10 1.9
2018-Jun-23 11:14N 17°55' W 062°54'310.0
2018-Jun-23 10:55N 17°56' W 062°57'7 9.6
2018-Jun-23 10:11N 18°00' W 063°03'1 2.1
2018-Jun-23 09:53N 18°01' W 063°03'0 0.0
2018-Jun-23 09:26N 18°01' W 063°03'0 0.0
2018-Jun-23 08:56N 18°01' W 063°03'0 0.0
2018-Jun-23 08:23N 18°01' W 063°03'0 0.0
2018-Jun-23 07:53N 18°01' W 063°03'0 0.0
2018-Jun-23 06:11N 18°01' W 063°03'0 0.0
2018-Jun-23 04:29N 18°01' W 063°03'0 0.0
2018-Jun-23 03:59N 18°01' W 063°03'0 0.0
2018-Jun-23 03:11N 18°01' W 063°03'0 0.0
2018-Jun-23 02:42N 18°01' W 063°03'0 0.0
2018-Jun-23 02:29N 18°01' W 063°03'0 0.0
2018-Jun-23 01:11N 18°01' W 063°03'0 0.0
2018-Jun-23 00:56N 18°01' W 063°03'0 0.0
2018-Jun-23 00:26N 18°01' W 063°03'0 0.0
2018-Jun-22 23:56N 18°01' W 063°03'0 0.0
2018-Jun-22 23:29N 18°01' W 063°03'0 0.0
2018-Jun-22 22:56N 18°01' W 063°03'0 0.0
2018-Jun-22 21:44N 18°01' W 063°03'0 0.0
2018-Jun-22 21:29N 18°01' W 063°03'0 0.0
2018-Jun-22 13:19N 18°00' W 063°03'2 5.4
2018-Jun-22 12:52N 17°59' W 063°01'410.7
2018-Jun-22 12:30N 17°55' W 063°00'813.1
2018-Jun-22 11:56N 17°47' W 062°59'712.8
2018-Jun-22 11:24N 17°41' W 062°57'512.6
2018-Jun-22 10:58N 17°36' W 062°56'711.7
2018-Jun-22 10:25N 17°29' W 062°55'512.2
2018-Jun-22 10:00N 17°24' W 062°54'1312.5
2018-Jun-22 08:57N 17°13' W 062°47'613.0
2018-Jun-22 08:29N 17°08' W 062°43'712.8
2018-Jun-22 07:57N 17°02' W 062°39'612.6
2018-Jun-22 07:28N 16°57' W 062°36'3 0.1
2018-Jun-20 22:18N 16°54' W 062°33'3 8.9
2018-Jun-20 22:00N 16°57' W 062°35'5 8.9
2018-Jun-20 21:28N 17°00' W 062°38'4 9.0
2018-Jun-20 21:00N 17°04' W 062°40'5 9.0
2018-Jun-20 20:30N 17°08' W 062°43'15 9.0
2018-Jun-20 18:51N 17°20' W 062°52'4 8.6
2018-Jun-20 18:20N 17°24' W 062°54'5 9.1
2018-Jun-20 17:45N 17°29' W 062°54'3 8.9
2018-Jun-20 17:28N 17°32' W 062°54'6 9.2
2018-Jun-20 16:51N 17°37' W 062°54'5 9.1
2018-Jun-20 16:16N 17°43' W 062°53'3 8.8
2018-Jun-20 15:56N 17°46' W 062°53'5 9.0
2018-Jun-20 15:23N 17°51' W 062°53'4 0.8
2018-Jun-20 09:55N 17°55' W 062°54'4 9.7
2018-Jun-20 09:28N 17°56' W 062°58'611.9
2018-Jun-20 08:59N 17°60' W 063°03'1 1.4
2018-Jun-20 08:30N 18°01' W 063°03'0 0.0
2018-Jun-20 06:51N 18°01' W 063°03'0 0.0
2018-Jun-20 06:18N 18°01' W 063°03'0 0.0
2018-Jun-20 05:48N 18°01' W 063°03'0 0.0
2018-Jun-20 05:07N 18°01' W 063°03'0 0.0
2018-Jun-20 03:55N 18°01' W 063°03'0 0.0
2018-Jun-20 01:06N 18°01' W 063°03'0 0.0
2018-Jun-20 00:54N 18°01' W 063°03'0 0.0
2018-Jun-20 00:25N 18°01' W 063°03'0 0.0
2018-Jun-19 23:58N 18°01' W 063°03'2 4.3
2018-Jun-19 23:30N 18°00' W 063°05'713.3
2018-Jun-19 23:00N 18°02' W 063°12'713.2
2018-Jun-19 22:28N 18°03' W 063°19'713.3
2018-Jun-19 21:58N 18°04' W 063°26'613.2
2018-Jun-19 21:30N 18°05' W 063°32'713.4
2018-Jun-19 21:00N 18°06' W 063°39'5412.9
2018-Jun-19 16:50N 18°14' W 064°35'613.4
2018-Jun-19 16:23N 18°15' W 064°41'1113.5
2018-Jun-19 15:34N 18°17' W 064°53'7 1.0
2018-Jun-19 08:46N 18°17' W 065°00'9 0.3
2018-Jun-18 03:27N 18°27' W 064°60'510.4
2018-Jun-18 03:00N 18°26' W 064°55'510.7
2018-Jun-18 02:30N 18°24' W 064°49'13 9.6
2018-Jun-18 01:08N 18°24' W 064°36'0 0.4
2018-Jun-18 00:59N 18°24' W 064°36'0 0.0
2018-Jun-18 00:29N 18°24' W 064°36'0 0.0
2018-Jun-17 23:59N 18°24' W 064°36'0 0.0
2018-Jun-17 23:29N 18°24' W 064°36'68 3.6
2018-Jun-17 04:39N 18°06' W 063°27'211.1
2018-Jun-17 04:28N 18°05' W 063°25'510.3
2018-Jun-17 04:00N 18°04' W 063°20'510.3
2018-Jun-17 03:30N 18°03' W 063°14'610.7
2018-Jun-17 02:58N 18°01' W 063°09'6 9.9
2018-Jun-17 02:23N 18°01' W 063°03'0 0.0
2018-Jun-16 23:59N 18°01' W 063°03'0 0.0
2018-Jun-16 22:41N 18°01' W 063°03'0 0.0
2018-Jun-16 22:29N 18°01' W 063°03'0 0.0
2018-Jun-16 21:41N 18°01' W 063°03'0 0.0
2018-Jun-16 21:17N 18°01' W 063°03'0 0.1
2018-Jun-16 16:39N 18°00' W 063°03'1 8.2
2018-Jun-16 16:28N 17°59' W 063°02'7 1.5
2018-Jun-16 11:47N 17°56' W 062°56'413.5
2018-Jun-16 11:29N 17°57' W 062°59'5 4.3
2018-Jun-16 10:24N 18°01' W 063°03'0 0.0
2018-Jun-16 09:57N 18°01' W 063°03'0 0.0
2018-Jun-16 09:27N 18°01' W 063°03'0 0.0
2018-Jun-16 07:42N 18°01' W 063°03'0 0.0
2018-Jun-16 07:27N 18°01' W 063°03'0 0.0
2018-Jun-16 07:00N 18°01' W 063°03'0 0.0
2018-Jun-16 06:30N 18°01' W 063°03'1 1.2
2018-Jun-16 05:57N 17°60' W 063°03'512.1
2018-Jun-16 05:30N 17°55' W 063°00'814.3
2018-Jun-16 04:57N 17°47' W 062°59'914.1
2018-Jun-16 04:19N 17°39' W 062°57'1313.9
2018-Jun-16 03:24N 17°26' W 062°54'1813.9
2018-Jun-16 02:05N 17°10' W 062°45'214.4
2018-Jun-16 01:57N 17°08' W 062°44'713.9
2018-Jun-16 01:28N 17°03' W 062°40'713.7
2018-Jun-16 00:59N 16°57' W 062°36'  

Dump ship's entire track history